Time;durP1;ratioP1;P1;durP2;ratioP2;P2;SDS_P1;SDS_P2;PMS_P1;PMS_P2;Temp;Humidity;BMP_temperature;BMP_pressure;BME280_temperature;BME280_humidity;BME280_pressure;Samples;Min_cycle;Max_cycle;Signal;HPM_P1;HPM_P2
2021/05/15 00:01:13;;;;;;;;;;;;;;;11.77;70.82;99421.38;5004065;28;19921;-67
2021/05/15 00:03:40;;;;;;;;;;;;;;;11.70;71.33;99418.38;5007061;28;19925;-67
2021/05/15 00:06:06;;;;;;;;;;;;;;;11.72;70.89;99416.06;5007199;28;19925;-68
2021/05/15 00:08:33;;;;;;;;;;;;;;;11.65;71.12;99413.00;5007631;28;19929;-67
2021/05/15 00:11:00;;;;;;;;;;;;;;;11.56;71.80;99409.53;5006064;28;20288;-67
2021/05/15 00:13:27;;;;;;;;;;;;;;;11.49;71.84;99409.31;5005573;28;19925;-67
2021/05/15 00:15:53;;;;;;;;;;;;;;;11.46;71.90;99408.00;5006609;28;19929;-67
2021/05/15 00:18:20;;;;;;;;;;;;;;;11.36;72.33;99403.69;5006376;28;19948;-67
2021/05/15 00:20:46;;;;;;;;;;;;;;;11.32;72.31;99399.16;5006671;28;19926;-67
2021/05/15 00:23:13;;;;;;;;;;;;;;;11.27;72.26;99397.41;5005993;28;19922;-67
2021/05/15 00:25:39;;;;;;;;;;;;;;;11.23;72.10;99388.09;5006135;28;19925;-67
2021/05/15 00:28:07;;;;;;;;;;;;;;;11.15;72.25;99381.47;5006920;28;19937;-67
2021/05/15 00:30:33;;;;;;;;;;;;;;;11.10;71.94;99383.66;5006383;28;19922;-67
2021/05/15 00:33:00;;;;;;;;;;;;;;;11.00;72.39;99384.09;5006318;28;19937;-67
2021/05/15 00:35:26;;;;;;;;;;;;;;;10.90;72.68;99380.59;5007169;28;19977;-67
2021/05/15 00:37:55;;;;;;;;;;;;;;;10.86;72.62;99376.88;5005735;28;19993;-67
2021/05/15 00:40:22;;;;;;;;;;;;;;;10.80;72.71;99381.03;5006573;28;19921;-67
2021/05/15 00:42:51;;;;;;;;;;;;;;;10.72;73.04;99379.13;5007328;28;19929;-67
2021/05/15 00:45:21;;;;;;;;;;;;;;;10.67;73.36;99376.56;5006209;28;19926;-67
2021/05/15 00:47:48;;;;;;;;;;;;;;;10.66;73.72;99378.53;5006469;28;20022;-67
2021/05/15 00:50:14;;;;;;;;;;;;;;;10.63;73.76;99375.63;5004802;28;19933;-67
2021/05/15 00:52:41;;;;;;;;;;;;;;;10.61;73.68;99384.31;5005658;28;19921;-67
2021/05/15 00:55:08;;;;;;;;;;;;;;;10.57;73.70;99384.19;5005810;28;19952;-67
2021/05/15 00:57:36;;;;;;;;;;;;;;;10.49;73.77;99373.94;5006000;28;21168;-67
2021/05/15 01:00:07;;;;;;;;;;;;;;;10.46;73.55;99374.63;5005956;28;19922;-67
2021/05/15 01:02:35;;;;;;;;;;;;;;;10.42;73.76;99370.88;5005095;28;19928;-67
2021/05/15 01:05:01;;;;;;;;;;;;;;;10.34;73.72;99366.22;5004641;28;19926;-67
2021/05/15 01:07:28;;;;;;;;;;;;;;;10.32;73.72;99374.88;5005140;28;20370;-67
2021/05/15 01:09:54;;;;;;;;;;;;;;;10.28;73.79;99376.69;5005991;28;19932;-67
2021/05/15 01:12:21;;;;;;;;;;;;;;;10.24;73.48;99374.94;5005274;28;19928;-67
2021/05/15 01:14:48;;;;;;;;;;;;;;;10.20;73.54;99369.22;5006478;28;19921;-68
2021/05/15 01:17:14;;;;;;;;;;;;;;;10.14;73.46;99365.84;5005424;28;19926;-67
2021/05/15 01:19:42;;;;;;;;;;;;;;;10.12;73.65;99370.94;5005234;28;20449;-67
2021/05/15 01:22:10;;;;;;;;;;;;;;;10.10;73.71;99364.88;5004543;28;19936;-67
2021/05/15 01:24:37;;;;;;;;;;;;;;;10.08;73.31;99369.97;5006280;28;19928;-67
2021/05/15 01:27:08;;;;;;;;;;;;;;;10.08;73.70;99378.31;5004271;28;20293;-67
2021/05/15 01:29:35;;;;;;;;;;;;;;;10.11;73.85;99376.81;5004875;28;19921;-67
2021/05/15 01:32:04;;;;;;;;;;;;;;;10.08;73.95;99367.19;5004910;28;19929;-67
2021/05/15 01:34:31;;;;;;;;;;;;;;;10.08;73.83;99364.41;5005335;28;20518;-67
2021/05/15 01:36:57;;;;;;;;;;;;;;;10.10;73.21;99369.63;5005784;28;19921;-67
2021/05/15 01:39:24;;;;;;;;;;;;;;;10.08;73.43;99367.19;5005252;28;20378;-67
2021/05/15 01:41:51;;;;;;;;;;;;;;;10.05;73.38;99372.63;5006344;28;19926;-67
2021/05/15 01:44:18;;;;;;;;;;;;;;;10.06;73.76;99369.50;5004898;28;20031;-67
2021/05/15 01:46:45;;;;;;;;;;;;;;;10.04;73.38;99362.66;5006269;28;20278;-67
2021/05/15 01:49:11;;;;;;;;;;;;;;;10.00;73.26;99362.50;5005221;28;19944;-67
2021/05/15 01:51:38;;;;;;;;;;;;;;;10.02;73.49;99356.63;5005084;28;19981;-66
2021/05/15 01:54:04;;;;;;;;;;;;;;;10.00;73.78;99359.72;5005445;28;19929;-67
2021/05/15 01:56:34;;;;;;;;;;;;;;;10.01;73.75;99361.34;5004215;28;19930;-67
2021/05/15 01:59:01;;;;;;;;;;;;;;;10.03;73.45;99352.66;5004722;28;19984;-67
2021/05/15 02:01:27;;;;;;;;;;;;;;;10.03;73.72;99347.91;5003970;28;20401;-67
2021/05/15 02:03:54;;;;;;;;;;;;;;;10.08;73.31;99347.72;5004406;28;19922;-66
2021/05/15 02:06:23;;;;;;;;;;;;;;;10.11;73.59;99349.00;5004745;28;19929;-66
2021/05/15 02:08:50;;;;;;;;;;;;;;;10.13;73.60;99341.13;5005365;28;19929;-66
2021/05/15 02:11:16;;;;;;;;;;;;;;;10.20;74.08;99338.59;5004956;28;19928;-66
2021/05/15 02:13:45;;;;;;;;;;;;;;;10.24;73.95;99333.19;5003516;28;19925;-67
2021/05/15 02:16:11;;;;;;;;;;;;;;;10.32;73.63;99335.91;5004748;28;19940;-66
2021/05/15 02:18:38;;;;;;;;;;;;;;;10.34;73.72;99333.63;5003820;28;20390;-66
2021/05/15 02:21:05;;;;;;;;;;;;;;;10.40;73.73;99328.66;5004068;28;19929;-66
2021/05/15 02:23:32;;;;;;;;;;;;;;;10.45;73.96;99322.06;5003682;28;20318;-66
2021/05/15 02:25:58;;;;;;;;;;;;;;;10.53;73.62;99332.31;5003066;28;19928;-66
2021/05/15 02:28:25;;;;;;;;;;;;;;;10.56;73.78;99331.59;5004041;28;20302;-66
2021/05/15 02:30:52;;;;;;;;;;;;;;;10.59;73.39;99321.78;5004719;28;20291;-66
2021/05/15 02:33:19;;;;;;;;;;;;;;;10.62;72.97;99321.88;5004693;28;20626;-66
2021/05/15 02:35:46;;;;;;;;;;;;;;;10.64;73.18;99322.34;5004241;28;19929;-66
2021/05/15 02:38:13;;;;;;;;;;;;;;;10.61;73.24;99313.91;5004621;28;19925;-66
2021/05/15 02:40:40;;;;;;;;;;;;;;;10.66;72.83;99316.44;5004350;28;19925;-66
2021/05/15 02:43:06;;;;;;;;;;;;;;;10.69;73.17;99318.56;5004066;28;19928;-66
2021/05/15 02:45:33;;;;;;;;;;;;;;;10.69;72.97;99313.00;5003685;28;19929;-66
2021/05/15 02:48:00;;;;;;;;;;;;;;;10.72;72.98;99307.53;5004161;28;19928;-66
2021/05/15 02:50:27;;;;;;;;;;;;;;;10.78;72.95;99305.34;5003294;28;19929;-66
2021/05/15 02:52:54;;;;;;;;;;;;;;;10.80;73.14;99314.19;5005185;28;19921;-66
2021/05/15 02:55:24;;;;;;;;;;;;;;;10.84;72.99;99315.13;5003224;28;20392;-67
2021/05/15 02:57:51;;;;;;;;;;;;;;;10.88;72.95;99309.69;5004640;28;19921;-67
2021/05/15 03:00:19;;;;;;;;;;;;;;;10.95;72.57;99313.50;5004853;28;19921;-66
2021/05/15 03:02:46;;;;;;;;;;;;;;;10.95;72.65;99305.16;5002992;28;19922;-66
2021/05/15 03:05:14;;;;;;;;;;;;;;;11.03;72.90;99305.41;5003027;28;20347;-67
2021/05/15 03:07:41;;;;;;;;;;;;;;;11.10;72.54;99300.06;5003395;28;20293;-66
2021/05/15 03:10:08;;;;;;;;;;;;;;;11.16;71.83;99299.47;5003906;28;19921;-66
2021/05/15 03:12:35;;;;;;;;;;;;;;;11.22;71.15;99300.06;5003720;28;19940;-66
2021/05/15 03:15:04;;;;;;;;;;;;;;;11.26;70.82;99298.22;5003265;28;19921;-66
2021/05/15 03:17:30;;;;;;;;;;;;;;;11.26;70.89;99295.44;5003453;28;19949;-66
2021/05/15 03:19:57;;;;;;;;;;;;;;;11.23;70.69;99304.47;5005102;28;19928;-66
2021/05/15 03:22:24;;;;;;;;;;;;;;;11.28;70.31;99303.44;5002689;28;19925;-66
2021/05/15 03:24:50;;;;;;;;;;;;;;;11.27;70.23;99302.63;5003932;28;19925;-66
2021/05/15 03:27:17;;;;;;;;;;;;;;;11.26;70.23;99287.06;5003342;28;19921;-66
2021/05/15 03:29:43;;;;;;;;;;;;;;;11.24;69.94;99292.19;5003703;28;19921;-66
2021/05/15 03:32:10;;;;;;;;;;;;;;;11.22;70.20;99286.13;5003920;28;19929;-66
2021/05/15 03:34:37;;;;;;;;;;;;;;;11.11;70.35;99290.56;5004369;28;19930;-66
2021/05/15 03:37:03;;;;;;;;;;;;;;;11.16;70.61;99293.09;5005992;28;19929;-66
2021/05/15 03:39:31;;;;;;;;;;;;;;;11.13;70.71;99282.66;5006907;28;19922;-66
2021/05/15 03:41:58;;;;;;;;;;;;;;;11.17;70.44;99289.13;5007123;28;20379;-66
2021/05/15 03:44:24;;;;;;;;;;;;;;;11.17;70.49;99289.13;5006982;28;20370;-66
2021/05/15 03:46:51;;;;;;;;;;;;;;;11.20;70.77;99288.47;5007581;28;19925;-66
2021/05/15 03:49:17;;;;;;;;;;;;;;;11.20;70.88;99294.03;5006941;28;19925;-66
2021/05/15 03:51:44;;;;;;;;;;;;;;;11.26;70.91;99292.66;5006943;28;19940;-66
2021/05/15 03:54:10;;;;;;;;;;;;;;;11.27;71.10;99294.25;5006949;28;20467;-65
2021/05/15 03:56:40;;;;;;;;;;;;;;;11.30;70.69;99296.38;5006537;28;20643;-66
2021/05/15 03:59:07;;;;;;;;;;;;;;;11.39;70.98;99293.44;5007770;28;19929;-66
2021/05/15 04:01:33;;;;;;;;;;;;;;;11.47;70.77;99288.94;5006518;28;19932;-66
2021/05/15 04:04:00;;;;;;;;;;;;;;;11.56;70.32;99293.19;5006988;28;19929;-66
2021/05/15 04:06:26;;;;;;;;;;;;;;;11.65;70.02;99292.25;5006905;28;19925;-66
2021/05/15 04:08:53;;;;;;;;;;;;;;;11.69;69.90;99294.00;5007526;28;19929;-66
2021/05/15 04:11:19;;;;;;;;;;;;;;;11.73;69.86;99288.53;5006211;28;19922;-66
2021/05/15 04:13:50;;;;;;;;;;;;;;;11.81;69.66;99290.38;5006099;28;19925;-66
2021/05/15 04:16:23;;;;;;;;;;;;;;;11.89;69.56;99295.06;5007162;28;20385;-66
2021/05/15 04:18:50;;;;;;;;;;;;;;;11.95;69.62;99290.06;5006747;28;19925;-66
2021/05/15 04:21:16;;;;;;;;;;;;;;;12.06;69.11;99293.97;5007261;28;19922;-66
2021/05/15 04:23:43;;;;;;;;;;;;;;;12.08;69.20;99294.41;5007456;28;19929;-66
2021/05/15 04:26:10;;;;;;;;;;;;;;;12.19;68.51;99291.94;5006824;28;19954;-66
2021/05/15 04:28:37;;;;;;;;;;;;;;;12.24;67.56;99286.13;5006396;28;19933;-66
2021/05/15 04:31:05;;;;;;;;;;;;;;;12.22;67.41;99287.63;5006127;28;20282;-65
2021/05/15 04:33:31;;;;;;;;;;;;;;;12.20;67.17;99285.19;5006068;28;19929;-65
2021/05/15 04:36:00;;;;;;;;;;;;;;;12.29;67.13;99293.44;5006721;28;19928;-66
2021/05/15 04:38:30;;;;;;;;;;;;;;;12.34;66.86;99295.94;5006416;28;20366;-65
2021/05/15 04:40:56;;;;;;;;;;;;;;;12.22;67.35;99299.63;5006252;28;19941;-65
2021/05/15 04:43:23;;;;;;;;;;;;;;;12.32;66.72;99293.50;5005608;28;19922;-65
2021/05/15 04:45:51;;;;;;;;;;;;;;;12.33;66.56;99297.13;5006152;28;19929;-65
2021/05/15 04:48:20;;;;;;;;;;;;;;;12.31;66.92;99291.09;5006111;28;19921;-65
2021/05/15 04:50:47;;;;;;;;;;;;;;;12.34;66.97;99290.38;5005778;28;19921;-65
2021/05/15 04:53:13;;;;;;;;;;;;;;;12.33;66.16;99289.56;5006259;28;19925;-65
2021/05/15 04:55:40;;;;;;;;;;;;;;;12.35;66.46;99290.03;5005707;28;19921;-65
2021/05/15 04:58:06;;;;;;;;;;;;;;;12.35;66.37;99286.44;5006960;28;20262;-65
2021/05/15 05:00:33;;;;;;;;;;;;;;;12.34;66.41;99293.16;5005827;28;19925;-65
2021/05/15 05:02:59;;;;;;;;;;;;;;;12.38;66.30;99292.09;5005433;28;20398;-65
2021/05/15 05:05:27;;;;;;;;;;;;;;;12.39;66.59;99292.91;5005814;28;19929;-65
2021/05/15 05:07:53;;;;;;;;;;;;;;;12.48;66.27;99284.38;5006154;28;19925;-65
2021/05/15 05:10:19;;;;;;;;;;;;;;;12.53;66.41;99281.31;5005161;28;19929;-65
2021/05/15 05:12:46;;;;;;;;;;;;;;;12.59;65.93;99277.91;5005556;28;19925;-65
2021/05/15 05:15:12;;;;;;;;;;;;;;;12.71;65.71;99276.22;5005096;28;20277;-65
2021/05/15 05:17:41;;;;;;;;;;;;;;;12.68;66.04;99280.56;5005266;28;19929;-65
2021/05/15 05:20:09;;;;;;;;;;;;;;;12.76;65.82;99273.16;5006991;28;19937;-65
2021/05/15 05:22:36;;;;;;;;;;;;;;;12.77;65.72;99272.00;5005708;28;19948;-65
2021/05/15 05:25:03;;;;;;;;;;;;;;;12.79;66.12;99278.06;5004824;28;19921;-65
2021/05/15 05:27:29;;;;;;;;;;;;;;;12.83;65.93;99272.53;5004591;28;19928;-65
2021/05/15 05:29:56;;;;;;;;;;;;;;;12.82;66.12;99271.72;5004605;28;19922;-65
2021/05/15 05:32:22;;;;;;;;;;;;;;;12.77;66.05;99275.59;5005566;28;19925;-65
2021/05/15 05:34:51;;;;;;;;;;;;;;;12.85;65.81;99282.22;5005823;28;19925;-65
2021/05/15 05:37:18;;;;;;;;;;;;;;;12.72;65.82;99269.47;5004555;28;19921;-65
2021/05/15 05:39:45;;;;;;;;;;;;;;;12.74;65.44;99269.91;5004550;28;20286;-65
2021/05/15 05:42:14;;;;;;;;;;;;;;;12.68;65.06;99274.97;5005031;28;19925;-65
2021/05/15 05:44:41;;;;;;;;;;;;;;;12.73;65.34;99276.69;5006051;28;19929;-65
2021/05/15 05:47:07;;;;;;;;;;;;;;;12.86;64.46;99272.63;5005041;28;19921;-65
2021/05/15 05:49:34;;;;;;;;;;;;;;;12.89;64.52;99274.72;5004593;28;19925;-65
2021/05/15 05:52:03;;;;;;;;;;;;;;;13.02;64.17;99266.22;5004827;28;19925;-65
2021/05/15 05:54:29;;;;;;;;;;;;;;;13.01;64.28;99268.22;5005213;28;19929;-65
2021/05/15 05:56:56;;;;;;;;;;;;;;;12.99;63.54;99276.97;5005273;28;19948;-65
2021/05/15 05:59:23;;;;;;;;;;;;;;;13.07;64.13;99268.78;5004514;28;20298;-65
2021/05/15 06:01:49;;;;;;;;;;;;;;;13.05;63.89;99269.13;5005626;28;19933;-65
2021/05/15 06:04:16;;;;;;;;;;;;;;;13.12;63.30;99268.50;5004740;28;19928;-65
2021/05/15 06:06:45;;;;;;;;;;;;;;;13.14;63.23;99271.75;5005205;28;19991;-65
2021/05/15 06:09:12;;;;;;;;;;;;;;;13.44;62.63;99269.31;5004652;28;19944;-65
2021/05/15 06:11:39;;;;;;;;;;;;;;;13.70;62.02;99271.50;5003883;28;20409;-65
2021/05/15 06:14:06;;;;;;;;;;;;;;;14.04;60.90;99266.25;5004604;28;19928;-65
2021/05/15 06:16:32;;;;;;;;;;;;;;;14.14;60.51;99267.66;5003680;28;19928;-65
2021/05/15 06:18:59;;;;;;;;;;;;;;;14.41;59.71;99266.63;5003888;28;20310;-65
2021/05/15 06:21:25;;;;;;;;;;;;;;;14.70;59.49;99257.97;5003552;28;19928;-65
2021/05/15 06:23:52;;;;;;;;;;;;;;;14.90;58.46;99253.94;5005713;28;19925;-65
2021/05/15 06:26:18;;;;;;;;;;;;;;;15.14;58.43;99260.34;5004324;28;20342;-65
2021/05/15 06:28:45;;;;;;;;;;;;;;;15.37;57.84;99261.16;5004545;28;19926;-65
2021/05/15 06:31:12;;;;;;;;;;;;;;;15.28;56.73;99259.78;5003750;28;19925;-65
2021/05/15 06:33:39;;;;;;;;;;;;;;;15.19;56.65;99260.03;5003837;28;20382;-65
2021/05/15 06:36:05;;;;;;;;;;;;;;;15.19;56.16;99260.03;5005472;28;19922;-65
2021/05/15 06:38:32;;;;;;;;;;;;;;;15.31;56.56;99257.03;5003963;28;19930;-66
2021/05/15 06:40:58;;;;;;;;;;;;;;;15.52;55.85;99250.16;5003495;28;20375;-66
2021/05/15 06:43:25;;;;;;;;;;;;;;;15.60;55.97;99247.06;5003976;28;19921;-66
2021/05/15 06:45:51;;;;;;;;;;;;;;;15.36;55.27;99253.91;5005096;28;19936;-66
2021/05/15 06:48:19;;;;;;;;;;;;;;;15.31;56.00;99265.47;5003197;28;19922;-66
2021/05/15 06:50:45;;;;;;;;;;;;;;;15.35;55.20;99259.88;5004204;28;19936;-66
2021/05/15 06:53:14;;;;;;;;;;;;;;;15.35;55.63;99257.09;5003753;28;19933;-66
2021/05/15 06:55:41;;;;;;;;;;;;;;;15.46;55.52;99262.88;5003158;28;20036;-67
2021/05/15 06:58:07;;;;;;;;;;;;;;;15.53;55.38;99268.59;5003569;28;19921;-66
2021/05/15 07:00:34;;;;;;;;;;;;;;;15.66;55.28;99258.75;5004969;28;20032;-66
2021/05/15 07:03:01;;;;;;;;;;;;;;;15.96;54.47;99258.03;5005522;28;19933;-66
2021/05/15 07:05:28;;;;;;;;;;;;;;;16.15;53.22;99260.69;5003654;28;19921;-66
2021/05/15 07:07:55;;;;;;;;;;;;;;;16.39;52.67;99255.75;5003155;28;19926;-66
2021/05/15 07:10:21;;;;;;;;;;;;;;;16.66;52.43;99250.03;5002764;28;19932;-66
2021/05/15 07:12:48;;;;;;;;;;;;;;;16.78;51.64;99252.56;5002834;28;19928;-66
2021/05/15 07:15:14;;;;;;;;;;;;;;;16.81;51.17;99252.59;5004685;28;19929;-66
2021/05/15 07:17:41;;;;;;;;;;;;;;;16.65;51.66;99249.19;5003315;28;19930;-66
2021/05/15 07:20:08;;;;;;;;;;;;;;;16.44;52.31;99250.59;5003050;28;19921;-66
2021/05/15 07:22:35;;;;;;;;;;;;;;;16.11;52.91;99248.59;5003621;28;20385;-66
2021/05/15 07:25:05;;;;;;;;;;;;;;;15.70;54.48;99245.59;5005580;28;20366;-66
2021/05/15 07:27:32;;;;;;;;;;;;;;;15.50;55.10;99255.34;5004483;28;19930;-66
2021/05/15 07:29:58;;;;;;;;;;;;;;;15.72;54.58;99248.84;5004339;28;19922;-67
2021/05/15 07:32:25;;;;;;;;;;;;;;;15.96;53.79;99250.41;5006315;28;19928;-66
2021/05/15 07:34:51;;;;;;;;;;;;;;;16.04;53.24;99251.28;5008060;28;19922;-66
2021/05/15 07:37:18;;;;;;;;;;;;;;;16.08;53.07;99246.53;5006131;28;19921;-66
2021/05/15 07:39:46;;;;;;;;;;;;;;;15.98;53.01;99247.19;5004435;28;20017;-67
2021/05/15 07:42:12;;;;;;;;;;;;;;;15.85;53.49;99251.44;5004685;28;19921;-66
2021/05/15 07:44:39;;;;;;;;;;;;;;;15.76;54.01;99246.91;5003797;28;19929;-66
2021/05/15 07:47:05;;;;;;;;;;;;;;;15.57;54.73;99247.81;5004670;28;19921;-66
2021/05/15 07:49:32;;;;;;;;;;;;;;;15.55;54.95;99255.81;5006136;28;19928;-66
2021/05/15 07:51:59;;;;;;;;;;;;;;;15.43;55.35;99256.00;5004123;28;19936;-66
2021/05/15 07:54:25;;;;;;;;;;;;;;;15.18;55.70;99250.81;5004194;28;19929;-66
2021/05/15 07:56:54;;;;;;;;;;;;;;;14.93;56.57;99264.44;5004991;28;19936;-66
2021/05/15 07:59:20;;;;;;;;;;;;;;;14.78;57.17;99256.91;5005363;28;19921;-66
2021/05/15 08:01:47;;;;;;;;;;;;;;;14.68;57.83;99252.75;5004308;28;19921;-66
2021/05/15 08:04:13;;;;;;;;;;;;;;;14.58;57.66;99254.16;5004817;28;19926;-66
2021/05/15 08:06:40;;;;;;;;;;;;;;;14.54;57.92;99261.66;5004846;28;19929;-66
2021/05/15 08:09:07;;;;;;;;;;;;;;;14.58;58.39;99254.16;5004777;28;19922;-66
2021/05/15 08:11:35;;;;;;;;;;;;;;;14.56;61.22;99253.72;5005050;28;20358;-65
2021/05/15 08:14:05;;;;;;;;;;;;;;;14.36;62.65;99254.91;5007263;28;20010;-66
2021/05/15 08:16:32;;;;;;;;;;;;;;;14.15;64.79;99258.06;5002228;28;19926;-65
2021/05/15 08:18:59;;;;;;;;;;;;;;;14.18;63.37;99252.56;5005135;28;20294;-65
2021/05/15 08:21:25;;;;;;;;;;;;;;;14.49;63.39;99261.97;5004796;28;19936;-65
2021/05/15 08:23:52;;;;;;;;;;;;;;;14.98;61.65;99258.50;5008553;28;19925;-66
2021/05/15 08:26:19;;;;;;;;;;;;;;;15.39;60.95;99249.53;5007413;28;19972;-66
2021/05/15 08:28:46;;;;;;;;;;;;;;;15.94;59.35;99249.97;5006493;28;19921;-66
2021/05/15 08:31:16;;;;;;;;;;;;;;;16.11;56.73;99245.78;5008171;28;19926;-66
2021/05/15 08:33:42;;;;;;;;;;;;;;;17.27;53.85;99237.34;5006421;28;19932;-66
2021/05/15 08:36:10;;;;;;;;;;;;;;;16.74;54.36;99244.09;5006762;28;19921;-66
2021/05/15 08:38:37;;;;;;;;;;;;;;;16.42;55.23;99235.28;5007137;28;20278;-66
2021/05/15 08:41:04;;;;;;;;;;;;;;;16.11;55.34;99236.56;5006512;28;19970;-66
2021/05/15 08:43:32;;;;;;;;;;;;;;;15.73;56.63;99235.66;5006422;28;19925;-66
2021/05/15 08:46:00;;;;;;;;;;;;;;;15.27;57.49;99239.34;5004519;28;20824;-65
2021/05/15 08:48:32;;;;;;;;;;;;;;;15.00;58.73;99247.72;5006321;28;19925;-66
2021/05/15 08:50:59;;;;;;;;;;;;;;;14.78;58.96;99245.72;5004766;28;19929;-66
2021/05/15 08:53:25;;;;;;;;;;;;;;;14.63;59.42;99239.03;5006001;28;19921;-66
2021/05/15 08:55:53;;;;;;;;;;;;;;;14.50;59.73;99241.16;5002745;28;19926;-67
2021/05/15 08:58:20;;;;;;;;;;;;;;;14.40;60.71;99231.41;5003364;28;19951;-67
2021/05/15 09:00:47;;;;;;;;;;;;;;;14.28;61.34;99244.72;5005038;28;19921;-67
2021/05/15 09:03:16;;;;;;;;;;;;;;;14.25;61.24;99248.28;5005348;28;19928;-67
2021/05/15 09:05:46;;;;;;;;;;;;;;;14.28;61.24;99242.75;5003352;28;19932;-66
2021/05/15 09:08:12;;;;;;;;;;;;;;;14.34;61.14;99232.88;5006290;28;19933;-67
2021/05/15 09:10:40;;;;;;;;;;;;;;;14.36;61.14;99238.09;5005207;28;20302;-66
2021/05/15 09:13:10;;;;;;;;;;;;;;;14.60;60.90;99237.78;5004799;28;19929;-67
2021/05/15 09:15:37;;;;;;;;;;;;;;;14.81;60.00;99231.75;5003469;28;19929;-66
2021/05/15 09:18:04;;;;;;;;;;;;;;;15.06;59.50;99230.59;5005178;28;19929;-66
2021/05/15 09:20:35;;;;;;;;;;;;;;;15.34;58.13;99224.63;5005565;28;19921;-66
2021/05/15 09:23:12;;;;;;;;;;;;;;;15.61;57.15;99219.81;5004043;28;19925;-66
2021/05/15 09:25:39;;;;;;;;;;;;;;;16.10;55.54;99223.69;5004643;28;19929;-66
2021/05/15 09:28:06;;;;;;;;;;;;;;;16.91;53.18;99206.09;5004115;28;20412;-67
2021/05/15 09:30:35;;;;;;;;;;;;;;;17.87;50.93;99204.34;5005722;28;19929;-67
2021/05/15 09:33:19;;;;;;;;;;;;;;;18.76;47.58;99198.19;5003964;28;19928;-67
2021/05/15 09:35:46;;;;;;;;;;;;;;;20.13;44.61;99199.63;5004759;28;19921;-67
2021/05/15 09:38:13;;;;;;;;;;;;;;;21.20;40.67;99191.69;5006043;28;19925;-67
2021/05/15 09:40:41;;;;;;;;;;;;;;;21.03;40.71;99188.59;5004848;28;20351;-67
2021/05/15 09:43:08;;;;;;;;;;;;;;;20.48;41.93;99187.34;5004191;28;19929;-67
2021/05/15 09:45:36;;;;;;;;;;;;;;;20.16;42.93;99190.34;5003556;28;19926;-68
2021/05/15 09:48:03;;;;;;;;;;;;;;;20.07;43.22;99189.97;5004937;28;19926;-67
2021/05/15 09:50:31;;;;;;;;;;;;;;;22.28;37.70;99174.38;5003863;28;20302;-67
2021/05/15 09:53:04;;;;;;;;;;;;;;;23.86;34.83;99175.41;5003723;28;19935;-67
2021/05/15 09:55:34;;;;;;;;;;;;;;;26.41;29.66;99163.31;5005292;28;20462;-67
2021/05/15 09:58:03;;;;;;;;;;;;;;;27.61;28.06;99152.47;5002293;28;19921;-67
2021/05/15 10:00:40;;;;;;;;;;;;;;;27.26;27.91;99156.13;5003466;28;19929;-67
2021/05/15 10:03:16;;;;;;;;;;;;;;;29.67;23.60;99143.84;5004169;28;21193;-67
2021/05/15 10:05:43;;;;;;;;;;;;;;;31.39;22.15;99143.47;5008466;28;19921;-67
2021/05/15 10:08:10;;;;;;;;;;;;;;;32.46;20.18;99123.28;5010315;28;20403;-67
2021/05/15 10:10:37;;;;;;;;;;;;;;;31.35;20.50;99132.16;5004737;28;20276;-67
2021/05/15 10:13:03;;;;;;;;;;;;;;;29.89;22.22;99127.28;5005311;28;20278;-67
2021/05/15 10:15:30;;;;;;;;;;;;;;;29.84;22.91;99127.13;5003118;28;19929;-66
2021/05/15 10:17:59;;;;;;;;;;;;;;;30.91;21.49;99121.25;5006134;28;19937;-67
2021/05/15 10:20:26;;;;;;;;;;;;;;;29.66;23.22;99140.19;5028754;28;19921;-68
2021/05/15 10:22:52;;;;;;;;;;;;;;;27.86;25.58;99126.63;5012839;28;19925;-67
2021/05/15 10:25:19;;;;;;;;;;;;;;;26.52;27.08;99131.56;5010810;28;19933;-66
2021/05/15 10:27:46;;;;;;;;;;;;;;;25.50;29.26;99129.28;5013852;28;19929;-67
2021/05/15 10:30:18;;;;;;;;;;;;;;;24.55;31.10;99129.22;5013942;28;20377;-66
2021/05/15 10:32:54;;;;;;;;;;;;;;;23.71;32.92;99128.56;5014127;28;19921;-66
2021/05/15 10:35:28;;;;;;;;;;;;;;;22.97;34.48;99125.84;5010552;28;20321;-66
2021/05/15 10:38:01;;;;;;;;;;;;;;;22.36;35.22;99124.78;5012986;28;19928;-66
2021/05/15 10:40:30;;;;;;;;;;;;;;;21.89;36.40;99116.88;5013631;28;19928;-66
2021/05/15 10:43:03;;;;;;;;;;;;;;;21.24;37.83;99116.81;5013987;28;19925;-66
2021/05/15 10:45:33;;;;;;;;;;;;;;;20.82;39.27;99115.19;5013632;28;19928;-66
2021/05/15 10:48:11;;;;;;;;;;;;;;;20.35;39.72;99126.00;5013956;28;19922;-66
2021/05/15 10:50:47;;;;;;;;;;;;;;;20.13;39.72;99114.81;5013795;28;19929;-66
2021/05/15 10:53:18;;;;;;;;;;;;;;;19.99;40.81;99121.38;5014065;28;20286;-66
2021/05/15 10:55:44;;;;;;;;;;;;;;;19.87;39.54;99121.84;5013139;28;20003;-66
2021/05/15 10:58:12;;;;;;;;;;;;;;;20.51;38.21;99114.19;5012738;28;19928;-66
2021/05/15 11:00:39;;;;;;;;;;;;;;;21.31;35.90;99098.91;5012914;28;19921;-66
2021/05/15 11:03:05;;;;;;;;;;;;;;;21.75;35.46;99102.88;5012935;28;19921;-66
2021/05/15 11:05:41;;;;;;;;;;;;;;;22.95;34.38;99095.06;5013759;28;20369;-66
2021/05/15 11:08:20;;;;;;;;;;;;;;;25.77;28.98;99089.00;5013568;28;20271;-66
2021/05/15 11:10:46;;;;;;;;;;;;;;;28.76;24.49;99079.38;5014073;28;20282;-67
2021/05/15 11:13:14;;;;;;;;;;;;;;;29.21;22.79;99081.53;5013169;28;19925;-67
2021/05/15 11:15:40;;;;;;;;;;;;;;;30.48;20.88;99074.50;5013416;28;19922;-67
2021/05/15 11:18:07;;;;;;;;;;;;;;;29.19;22.32;99074.66;5013473;28;19921;-67
2021/05/15 11:20:40;;;;;;;;;;;;;;;26.82;25.47;99072.31;5012637;28;19925;-67
2021/05/15 11:23:10;;;;;;;;;;;;;;;25.05;26.40;99099.50;5013355;28;19922;-67
2021/05/15 11:25:39;;;;;;;;;;;;;;;24.66;26.26;99086.25;4993625;28;19929;-67
2021/05/15 11:28:07;;;;;;;;;;;;;;;25.04;25.25;99095.03;4993337;28;19928;-67
2021/05/15 11:30:42;;;;;;;;;;;;;;;24.23;25.71;99084.41;4993365;28;19926;-67
2021/05/15 11:33:11;;;;;;;;;;;;;;;23.17;27.75;99086.19;4993683;28;19928;-67
2021/05/15 11:35:38;;;;;;;;;;;;;;;22.02;30.48;99094.44;4993409;28;19922;-67
2021/05/15 11:38:06;;;;;;;;;;;;;;;21.41;32.22;99109.34;4994759;28;19921;-67
2021/05/15 11:40:33;;;;;;;;;;;;;;;20.95;33.63;99098.50;5012966;28;19921;-67
2021/05/15 11:42:59;;;;;;;;;;;;;;;20.59;34.58;99108.09;5012990;28;19922;-67
2021/05/15 11:45:27;;;;;;;;;;;;;;;20.19;36.33;99118.84;5013605;28;19928;-67
2021/05/15 11:48:04;;;;;;;;;;;;;;;19.63;37.41;99124.34;5013619;28;19932;-67
2021/05/15 11:50:30;;;;;;;;;;;;;;;19.01;39.25;99120.03;5013084;28;19928;-67
2021/05/15 11:53:01;;;;;;;;;;;;;;;18.73;40.24;99134.09;5012946;28;19992;-67
2021/05/15 11:55:27;;;;;;;;;;;;;;;18.12;39.99;99140.47;5013344;28;20425;-66
2021/05/15 11:57:55;;;;;;;;;;;;;;;18.11;40.85;99141.66;5014672;28;19922;-66
2021/05/15 12:00:25;;;;;;;;;;;;;;;17.64;42.94;99140.66;5017745;28;20283;-66
2021/05/15 12:02:52;;;;;;;;;;;;;;;17.67;43.67;99122.16;5016731;28;19921;-66
2021/05/15 12:05:22;;;;;;;;;;;;;;;16.86;48.27;99143.78;5016934;28;19921;-67
2021/05/15 12:07:48;;;;;;;;;;;;;;;16.95;47.10;99125.38;5016949;28;20397;-67
2021/05/15 12:10:16;;;;;;;;;;;;;;;16.62;49.32;99115.03;5016507;28;19921;-67
2021/05/15 12:12:52;;;;;;;;;;;;;;;16.58;48.52;99123.44;5016757;28;19925;-67
2021/05/15 12:15:19;;;;;;;;;;;;;;;16.81;49.08;99116.81;5016797;28;19928;-66
2021/05/15 12:17:46;;;;;;;;;;;;;;;17.37;48.96;99101.50;5016278;28;19928;-66
2021/05/15 12:20:24;;;;;;;;;;;;;;;17.87;46.63;99105.75;5016243;28;20698;-67
2021/05/15 12:23:01;;;;;;;;;;;;;;;18.30;45.66;99092.59;5016109;28;20286;-67
2021/05/15 12:25:28;;;;;;;;;;;;;;;19.30;42.29;99090.94;5015840;28;19928;-67
2021/05/15 12:27:54;;;;;;;;;;;;;;;19.90;40.82;99072.97;5016388;28;20301;-68
2021/05/15 12:30:21;;;;;;;;;;;;;;;19.61;41.69;99060.97;5016356;28;19922;-68
2021/05/15 12:32:48;;;;;;;;;;;;;;;20.18;39.24;99062.69;5015956;28;20362;-68
2021/05/15 12:35:15;;;;;;;;;;;;;;;20.44;38.05;99047.16;5015898;28;19928;-68
2021/05/15 12:37:42;;;;;;;;;;;;;;;20.44;37.79;99045.13;5016519;28;19921;-68
2021/05/15 12:40:10;;;;;;;;;;;;;;;20.82;37.52;99041.59;5015915;28;19943;-68
2021/05/15 12:42:37;;;;;;;;;;;;;;;21.47;36.47;99036.06;5015325;28;19921;-67
2021/05/15 12:45:08;;;;;;;;;;;;;;;20.91;38.06;99036.25;5015610;28;19921;-67
2021/05/15 12:47:35;;;;;;;;;;;;;;;21.13;37.32;99028.34;5016398;28;19928;-68
2021/05/15 12:50:02;;;;;;;;;;;;;;;20.65;38.45;99027.19;5015866;28;19937;-68